TimeCDT,TemperatureF,Dew PointF,Humidity,Sea Level PressureIn,VisibilityMPH,Wind Direction,Wind SpeedMPH,Gust SpeedMPH,PrecipitationIn,Events,Conditions,WindDirDegrees,DateUTC
1:53 AM,41.0,26.1,55,30.33,10.0,North,8.1,-,N/A,,Clear,360,2012-10-12 06:53:00
3:53 AM,36.0,23.0,59,30.37,10.0,NNW,4.6,-,N/A,,Clear,330,2012-10-12 08:53:00
4:53 AM,35.1,24.1,64,30.39,10.0,NNW,5.8,-,N/A,,Clear,340,2012-10-12 09:53:00
5:53 AM,34.0,24.1,67,30.41,10.0,North,8.1,-,N/A,,Clear,350,2012-10-12 10:53:00
6:53 AM,33.1,24.1,70,30.42,10.0,North,8.1,-,N/A,,Clear,350,2012-10-12 11:53:00
7:53 AM,36.0,26.1,67,30.44,10.0,North,6.9,-,N/A,,Clear,350,2012-10-12 12:53:00
8:53 AM,42.1,30.9,65,30.46,10.0,North,8.1,-,N/A,,Clear,360,2012-10-12 13:53:00
9:53 AM,46.9,34.0,61,30.47,10.0,NE,12.7,-,N/A,,Clear,40,2012-10-12 14:53:00
10:53 AM,50.0,30.0,46,30.47,10.0,ENE,11.5,-,N/A,,Partly Cloudy,70,2012-10-12 15:53:00
11:53 AM,51.1,32.0,48,30.47,10.0,ENE,11.5,16.1,N/A,,Scattered Clouds,60,2012-10-12 16:53:00
12:53 PM,48.9,30.9,50,30.45,10.0,ESE,6.9,-,N/A,,Mostly Cloudy,120,2012-10-12 17:53:00
1:53 PM,48.9,33.1,54,30.44,10.0,ESE,9.2,17.3,N/A,,Overcast,120,2012-10-12 18:53:00
2:53 PM,48.9,33.1,54,30.43,10.0,ESE,9.2,-,N/A,,Overcast,120,2012-10-12 19:53:00
3:53 PM,48.9,32.0,52,30.41,10.0,ESE,10.4,-,N/A,,Scattered Clouds,120,2012-10-12 20:53:00
5:53 PM,46.0,32.0,58,30.38,10.0,SE,8.1,-,N/A,,Clear,140,2012-10-12 22:53:00
6:53 PM,44.1,32.0,63,30.38,10.0,ESE,5.8,-,N/A,,Clear,120,2012-10-12 23:53:00
7:53 PM,42.1,32.0,67,30.37,10.0,SE,5.8,-,N/A,,Clear,130,2012-10-13 00:53:00
9:53 PM,43.0,32.0,65,30.32,10.0,ESE,6.9,-,N/A,,Clear,120,2012-10-13 02:53:00
10:53 PM,43.0,33.1,68,30.30,10.0,SE,5.8,-,N/A,,Clear,140,2012-10-13 03:53:00
11:53 PM,45.0,35.1,68,30.27,10.0,ESE,5.8,-,N/A,,Clear,120,2012-10-13 04:53:00